sensor_id;sensor_type;location;lat;lon;timestamp;P1;durP1;ratioP1;P2;durP2;ratioP2
64500;SDS011;50874;24.150;-110.320;2023-04-24T00:01:18;9.30;;;2.00;;
64500;SDS011;50874;24.150;-110.320;2023-04-24T00:03:45;7.43;;;1.65;;
64500;SDS011;50874;24.150;-110.320;2023-04-24T00:06:11;7.93;;;2.22;;
64500;SDS011;50874;24.150;-110.320;2023-04-24T00:08:37;7.80;;;1.50;;
64500;SDS011;50874;24.150;-110.320;2023-04-24T00:11:04;9.48;;;2.47;;
64500;SDS011;50874;24.150;-110.320;2023-04-24T00:13:30;9.98;;;2.20;;
64500;SDS011;50874;24.150;-110.320;2023-04-24T00:15:57;6.88;;;1.33;;
64500;SDS011;50874;24.150;-110.320;2023-04-24T00:18:23;6.03;;;1.40;;
64500;SDS011;50874;24.150;-110.320;2023-04-24T00:20:50;6.65;;;1.70;;
64500;SDS011;50874;24.150;-110.320;2023-04-24T00:23:16;7.78;;;1.35;;
64500;SDS011;50874;24.150;-110.320;2023-04-24T00:25:43;8.68;;;1.67;;
64500;SDS011;50874;24.150;-110.320;2023-04-24T00:28:09;7.25;;;1.30;;
64500;SDS011;50874;24.150;-110.320;2023-04-24T00:30:36;3.00;;;1.10;;
64500;SDS011;50874;24.150;-110.320;2023-04-24T00:33:02;4.68;;;1.77;;
64500;SDS011;50874;24.150;-110.320;2023-04-24T00:35:29;6.93;;;1.33;;
64500;SDS011;50874;24.150;-110.320;2023-04-24T00:37:55;4.30;;;1.25;;
64500;SDS011;50874;24.150;-110.320;2023-04-24T00:40:22;7.65;;;1.83;;
64500;SDS011;50874;24.150;-110.320;2023-04-24T00:42:48;7.32;;;1.30;;
64500;SDS011;50874;24.150;-110.320;2023-04-24T00:45:15;10.10;;;1.63;;
64500;SDS011;50874;24.150;-110.320;2023-04-24T00:47:41;5.43;;;1.60;;
64500;SDS011;50874;24.150;-110.320;2023-04-24T00:50:08;8.75;;;2.40;;
64500;SDS011;50874;24.150;-110.320;2023-04-24T00:52:35;5.00;;;1.40;;
64500;SDS011;50874;24.150;-110.320;2023-04-24T00:55:02;7.88;;;1.58;;
64500;SDS011;50874;24.150;-110.320;2023-04-24T00:57:29;10.40;;;1.85;;
64500;SDS011;50874;24.150;-110.320;2023-04-24T00:59:55;4.88;;;1.20;;
64500;SDS011;50874;24.150;-110.320;2023-04-24T01:02:25;8.48;;;1.58;;
64500;SDS011;50874;24.150;-110.320;2023-04-24T01:04:51;3.95;;;1.40;;
64500;SDS011;50874;24.150;-110.320;2023-04-24T01:07:20;10.63;;;1.88;;
64500;SDS011;50874;24.150;-110.320;2023-04-24T01:09:46;8.55;;;2.25;;
64500;SDS011;50874;24.150;-110.320;2023-04-24T01:12:16;9.00;;;1.95;;
64500;SDS011;50874;24.150;-110.320;2023-04-24T01:14:42;17.10;;;2.05;;
64500;SDS011;50874;24.150;-110.320;2023-04-24T01:17:09;14.02;;;2.75;;
64500;SDS011;50874;24.150;-110.320;2023-04-24T01:19:36;12.55;;;1.80;;
64500;SDS011;50874;24.150;-110.320;2023-04-24T01:22:02;17.88;;;2.78;;
64500;SDS011;50874;24.150;-110.320;2023-04-24T01:24:38;7.97;;;1.80;;
64500;SDS011;50874;24.150;-110.320;2023-04-24T01:27:05;10.13;;;1.80;;
64500;SDS011;50874;24.150;-110.320;2023-04-24T01:29:31;16.02;;;2.35;;
64500;SDS011;50874;24.150;-110.320;2023-04-24T01:31:59;13.50;;;2.38;;
64500;SDS011;50874;24.150;-110.320;2023-04-24T01:34:29;8.68;;;2.03;;
64500;SDS011;50874;24.150;-110.320;2023-04-24T01:36:56;7.40;;;1.98;;
64500;SDS011;50874;24.150;-110.320;2023-04-24T01:39:22;10.20;;;2.35;;
64500;SDS011;50874;24.150;-110.320;2023-04-24T01:41:51;13.90;;;2.55;;
64500;SDS011;50874;24.150;-110.320;2023-04-24T01:44:18;9.57;;;1.90;;
64500;SDS011;50874;24.150;-110.320;2023-04-24T01:46:45;9.60;;;2.35;;
64500;SDS011;50874;24.150;-110.320;2023-04-24T01:49:12;13.32;;;2.33;;
64500;SDS011;50874;24.150;-110.320;2023-04-24T01:51:38;15.77;;;3.45;;
64500;SDS011;50874;24.150;-110.320;2023-04-24T01:54:05;13.20;;;3.15;;
64500;SDS011;50874;24.150;-110.320;2023-04-24T01:56:33;12.40;;;2.80;;
64500;SDS011;50874;24.150;-110.320;2023-04-24T01:59:02;20.02;;;3.35;;
64500;SDS011;50874;24.150;-110.320;2023-04-24T02:01:35;15.13;;;2.72;;
64500;SDS011;50874;24.150;-110.320;2023-04-24T02:04:03;12.45;;;2.80;;
64500;SDS011;50874;24.150;-110.320;2023-04-24T02:06:30;17.77;;;3.28;;
64500;SDS011;50874;24.150;-110.320;2023-04-24T02:08:57;17.33;;;3.20;;
64500;SDS011;50874;24.150;-110.320;2023-04-24T02:11:24;16.80;;;3.00;;
64500;SDS011;50874;24.150;-110.320;2023-04-24T02:13:51;15.45;;;3.30;;
64500;SDS011;50874;24.150;-110.320;2023-04-24T02:16:18;16.17;;;3.90;;
64500;SDS011;50874;24.150;-110.320;2023-04-24T02:18:45;16.58;;;4.38;;
64500;SDS011;50874;24.150;-110.320;2023-04-24T02:21:11;16.45;;;3.40;;
64500;SDS011;50874;24.150;-110.320;2023-04-24T02:23:38;20.77;;;3.85;;
64500;SDS011;50874;24.150;-110.320;2023-04-24T02:26:04;18.95;;;3.33;;
64500;SDS011;50874;24.150;-110.320;2023-04-24T02:28:31;15.85;;;4.18;;
64500;SDS011;50874;24.150;-110.320;2023-04-24T02:30:57;24.27;;;3.70;;
64500;SDS011;50874;24.150;-110.320;2023-04-24T02:33:25;18.80;;;4.15;;
64500;SDS011;50874;24.150;-110.320;2023-04-24T02:35:51;19.17;;;4.43;;
64500;SDS011;50874;24.150;-110.320;2023-04-24T02:38:18;28.38;;;5.03;;
64500;SDS011;50874;24.150;-110.320;2023-04-24T02:40:44;22.27;;;4.45;;
64500;SDS011;50874;24.150;-110.320;2023-04-24T02:43:10;17.70;;;3.85;;
64500;SDS011;50874;24.150;-110.320;2023-04-24T02:45:37;29.23;;;4.65;;
64500;SDS011;50874;24.150;-110.320;2023-04-24T02:48:03;17.98;;;4.43;;
64500;SDS011;50874;24.150;-110.320;2023-04-24T02:50:30;15.45;;;3.50;;
64500;SDS011;50874;24.150;-110.320;2023-04-24T02:52:57;16.83;;;4.18;;
64500;SDS011;50874;24.150;-110.320;2023-04-24T02:55:23;21.65;;;4.43;;
64500;SDS011;50874;24.150;-110.320;2023-04-24T02:57:50;18.63;;;4.95;;
64500;SDS011;50874;24.150;-110.320;2023-04-24T03:00:16;16.95;;;4.03;;
64500;SDS011;50874;24.150;-110.320;2023-04-24T03:02:43;15.93;;;3.63;;
64500;SDS011;50874;24.150;-110.320;2023-04-24T03:05:09;18.77;;;3.80;;
64500;SDS011;50874;24.150;-110.320;2023-04-24T03:07:37;17.02;;;4.07;;
64500;SDS011;50874;24.150;-110.320;2023-04-24T03:10:04;19.55;;;3.60;;
64500;SDS011;50874;24.150;-110.320;2023-04-24T03:12:31;14.75;;;3.83;;
64500;SDS011;50874;24.150;-110.320;2023-04-24T03:14:57;16.45;;;3.33;;
64500;SDS011;50874;24.150;-110.320;2023-04-24T03:17:24;17.30;;;3.55;;
64500;SDS011;50874;24.150;-110.320;2023-04-24T03:19:51;16.73;;;3.50;;
64500;SDS011;50874;24.150;-110.320;2023-04-24T03:22:17;17.92;;;3.70;;
64500;SDS011;50874;24.150;-110.320;2023-04-24T03:24:44;19.20;;;3.70;;
64500;SDS011;50874;24.150;-110.320;2023-04-24T03:27:10;18.27;;;4.88;;
64500;SDS011;50874;24.150;-110.320;2023-04-24T03:29:36;18.35;;;4.22;;
64500;SDS011;50874;24.150;-110.320;2023-04-24T03:32:03;30.63;;;5.60;;
64500;SDS011;50874;24.150;-110.320;2023-04-24T03:34:29;26.38;;;4.22;;
64500;SDS011;50874;24.150;-110.320;2023-04-24T03:36:56;24.27;;;5.18;;
64500;SDS011;50874;24.150;-110.320;2023-04-24T03:39:22;23.20;;;4.97;;
64500;SDS011;50874;24.150;-110.320;2023-04-24T03:41:50;19.95;;;4.82;;
64500;SDS011;50874;24.150;-110.320;2023-04-24T03:44:16;19.13;;;5.25;;
64500;SDS011;50874;24.150;-110.320;2023-04-24T03:46:43;20.70;;;5.32;;
64500;SDS011;50874;24.150;-110.320;2023-04-24T03:49:09;24.67;;;4.63;;
64500;SDS011;50874;24.150;-110.320;2023-04-24T03:51:36;27.15;;;5.55;;
64500;SDS011;50874;24.150;-110.320;2023-04-24T03:54:02;26.20;;;5.53;;
64500;SDS011;50874;24.150;-110.320;2023-04-24T03:56:29;23.88;;;5.32;;
64500;SDS011;50874;24.150;-110.320;2023-04-24T03:58:55;25.60;;;5.32;;
64500;SDS011;50874;24.150;-110.320;2023-04-24T04:01:22;25.15;;;5.80;;
64500;SDS011;50874;24.150;-110.320;2023-04-24T04:03:49;25.35;;;4.88;;
64500;SDS011;50874;24.150;-110.320;2023-04-24T04:06:15;22.92;;;5.20;;
64500;SDS011;50874;24.150;-110.320;2023-04-24T04:08:42;19.83;;;4.60;;
64500;SDS011;50874;24.150;-110.320;2023-04-24T04:11:08;23.40;;;4.65;;
64500;SDS011;50874;24.150;-110.320;2023-04-24T04:13:35;23.20;;;6.05;;
64500;SDS011;50874;24.150;-110.320;2023-04-24T04:16:01;22.50;;;4.82;;
64500;SDS011;50874;24.150;-110.320;2023-04-24T04:18:28;30.75;;;5.60;;
64500;SDS011;50874;24.150;-110.320;2023-04-24T04:20:54;29.27;;;5.90;;
64500;SDS011;50874;24.150;-110.320;2023-04-24T04:23:22;25.40;;;4.47;;
64500;SDS011;50874;24.150;-110.320;2023-04-24T04:25:48;27.13;;;5.38;;
64500;SDS011;50874;24.150;-110.320;2023-04-24T04:28:15;28.83;;;5.85;;
64500;SDS011;50874;24.150;-110.320;2023-04-24T04:30:45;22.90;;;4.65;;
64500;SDS011;50874;24.150;-110.320;2023-04-24T04:33:12;18.35;;;4.15;;
64500;SDS011;50874;24.150;-110.320;2023-04-24T04:35:40;27.17;;;5.35;;
64500;SDS011;50874;24.150;-110.320;2023-04-24T04:38:06;21.95;;;4.47;;
64500;SDS011;50874;24.150;-110.320;2023-04-24T04:40:33;21.23;;;4.88;;
64500;SDS011;50874;24.150;-110.320;2023-04-24T04:43:00;26.75;;;4.75;;
64500;SDS011;50874;24.150;-110.320;2023-04-24T04:45:26;22.77;;;5.18;;
64500;SDS011;50874;24.150;-110.320;2023-04-24T04:47:53;23.65;;;5.63;;
64500;SDS011;50874;24.150;-110.320;2023-04-24T04:50:20;27.88;;;5.70;;
64500;SDS011;50874;24.150;-110.320;2023-04-24T04:52:48;25.63;;;5.45;;
64500;SDS011;50874;24.150;-110.320;2023-04-24T04:55:14;20.27;;;4.32;;
64500;SDS011;50874;24.150;-110.320;2023-04-24T04:57:41;21.08;;;4.43;;
64500;SDS011;50874;24.150;-110.320;2023-04-24T05:00:07;31.00;;;4.72;;
64500;SDS011;50874;24.150;-110.320;2023-04-24T05:02:35;15.13;;;4.35;;
64500;SDS011;50874;24.150;-110.320;2023-04-24T05:05:02;25.60;;;4.35;;
64500;SDS011;50874;24.150;-110.320;2023-04-24T05:07:29;22.70;;;4.57;;
64500;SDS011;50874;24.150;-110.320;2023-04-24T05:09:55;23.67;;;4.80;;
64500;SDS011;50874;24.150;-110.320;2023-04-24T05:12:21;16.95;;;4.10;;
64500;SDS011;50874;24.150;-110.320;2023-04-24T05:14:48;16.10;;;4.47;;
64500;SDS011;50874;24.150;-110.320;2023-04-24T05:17:15;23.67;;;4.40;;
64500;SDS011;50874;24.150;-110.320;2023-04-24T05:19:41;24.33;;;4.38;;
64500;SDS011;50874;24.150;-110.320;2023-04-24T05:22:08;24.13;;;4.65;;
64500;SDS011;50874;24.150;-110.320;2023-04-24T05:24:36;22.27;;;4.40;;
64500;SDS011;50874;24.150;-110.320;2023-04-24T05:27:03;15.13;;;4.57;;
64500;SDS011;50874;24.150;-110.320;2023-04-24T05:29:30;20.10;;;5.05;;
64500;SDS011;50874;24.150;-110.320;2023-04-24T05:31:58;16.77;;;3.97;;
64500;SDS011;50874;24.150;-110.320;2023-04-24T05:34:25;17.15;;;4.05;;
64500;SDS011;50874;24.150;-110.320;2023-04-24T05:36:52;24.85;;;5.15;;
64500;SDS011;50874;24.150;-110.320;2023-04-24T05:39:18;19.45;;;3.92;;
64500;SDS011;50874;24.150;-110.320;2023-04-24T05:41:45;20.23;;;4.47;;
64500;SDS011;50874;24.150;-110.320;2023-04-24T05:44:12;27.10;;;5.70;;
64500;SDS011;50874;24.150;-110.320;2023-04-24T05:46:38;16.63;;;4.32;;
64500;SDS011;50874;24.150;-110.320;2023-04-24T05:49:05;23.63;;;4.38;;
64500;SDS011;50874;24.150;-110.320;2023-04-24T05:51:31;16.52;;;4.97;;
64500;SDS011;50874;24.150;-110.320;2023-04-24T05:53:58;19.05;;;4.00;;
64500;SDS011;50874;24.150;-110.320;2023-04-24T05:56:24;26.95;;;4.97;;
64500;SDS011;50874;24.150;-110.320;2023-04-24T05:58:51;22.80;;;4.80;;
64500;SDS011;50874;24.150;-110.320;2023-04-24T06:01:17;24.40;;;5.00;;
64500;SDS011;50874;24.150;-110.320;2023-04-24T06:03:44;19.60;;;4.43;;
64500;SDS011;50874;24.150;-110.320;2023-04-24T06:06:11;22.33;;;4.78;;
64500;SDS011;50874;24.150;-110.320;2023-04-24T06:08:37;20.13;;;4.70;;
64500;SDS011;50874;24.150;-110.320;2023-04-24T06:11:04;19.00;;;4.45;;
64500;SDS011;50874;24.150;-110.320;2023-04-24T06:13:30;20.27;;;3.70;;
64500;SDS011;50874;24.150;-110.320;2023-04-24T06:15:57;21.80;;;4.45;;
64500;SDS011;50874;24.150;-110.320;2023-04-24T06:18:23;21.75;;;4.05;;
64500;SDS011;50874;24.150;-110.320;2023-04-24T06:20:50;15.32;;;3.97;;
64500;SDS011;50874;24.150;-110.320;2023-04-24T06:23:17;16.77;;;4.15;;
64500;SDS011;50874;24.150;-110.320;2023-04-24T06:25:43;18.90;;;4.00;;
64500;SDS011;50874;24.150;-110.320;2023-04-24T06:28:10;16.50;;;3.72;;
64500;SDS011;50874;24.150;-110.320;2023-04-24T06:30:36;18.58;;;4.47;;
64500;SDS011;50874;24.150;-110.320;2023-04-24T06:33:02;17.60;;;3.83;;
64500;SDS011;50874;24.150;-110.320;2023-04-24T06:35:29;18.10;;;4.97;;
64500;SDS011;50874;24.150;-110.320;2023-04-24T06:37:55;21.33;;;4.57;;
64500;SDS011;50874;24.150;-110.320;2023-04-24T06:40:22;22.20;;;4.40;;
64500;SDS011;50874;24.150;-110.320;2023-04-24T06:42:49;24.73;;;4.72;;
64500;SDS011;50874;24.150;-110.320;2023-04-24T06:45:16;18.20;;;3.97;;
64500;SDS011;50874;24.150;-110.320;2023-04-24T06:47:42;15.82;;;4.22;;
64500;SDS011;50874;24.150;-110.320;2023-04-24T06:50:09;16.73;;;4.05;;
64500;SDS011;50874;24.150;-110.320;2023-04-24T06:52:36;16.35;;;3.65;;
64500;SDS011;50874;24.150;-110.320;2023-04-24T06:55:03;32.92;;;4.63;;
64500;SDS011;50874;24.150;-110.320;2023-04-24T06:57:30;30.85;;;4.55;;
64500;SDS011;50874;24.150;-110.320;2023-04-24T06:59:57;19.55;;;3.65;;
64500;SDS011;50874;24.150;-110.320;2023-04-24T07:02:24;12.93;;;3.55;;
64500;SDS011;50874;24.150;-110.320;2023-04-24T07:04:51;25.50;;;4.50;;
64500;SDS011;50874;24.150;-110.320;2023-04-24T07:07:18;16.05;;;3.55;;
64500;SDS011;50874;24.150;-110.320;2023-04-24T07:09:44;15.90;;;4.13;;
64500;SDS011;50874;24.150;-110.320;2023-04-24T07:12:11;15.95;;;3.92;;
64500;SDS011;50874;24.150;-110.320;2023-04-24T07:14:38;14.57;;;4.10;;
64500;SDS011;50874;24.150;-110.320;2023-04-24T07:17:05;14.63;;;3.75;;
64500;SDS011;50874;24.150;-110.320;2023-04-24T07:19:32;23.13;;;4.03;;
64500;SDS011;50874;24.150;-110.320;2023-04-24T07:22:00;18.15;;;3.80;;
64500;SDS011;50874;24.150;-110.320;2023-04-24T07:24:28;15.60;;;3.80;;
64500;SDS011;50874;24.150;-110.320;2023-04-24T07:26:57;16.92;;;4.38;;
64500;SDS011;50874;24.150;-110.320;2023-04-24T07:29:26;20.40;;;3.83;;
64500;SDS011;50874;24.150;-110.320;2023-04-24T07:31:52;19.02;;;3.88;;
64500;SDS011;50874;24.150;-110.320;2023-04-24T07:34:19;16.77;;;3.97;;
64500;SDS011;50874;24.150;-110.320;2023-04-24T07:36:46;11.20;;;3.25;;
64500;SDS011;50874;24.150;-110.320;2023-04-24T07:39:12;21.45;;;3.90;;
64500;SDS011;50874;24.150;-110.320;2023-04-24T07:41:39;17.65;;;4.30;;
64500;SDS011;50874;24.150;-110.320;2023-04-24T07:44:05;16.23;;;3.33;;
64500;SDS011;50874;24.150;-110.320;2023-04-24T07:46:32;24.70;;;3.85;;
64500;SDS011;50874;24.150;-110.320;2023-04-24T07:48:59;13.18;;;3.10;;
64500;SDS011;50874;24.150;-110.320;2023-04-24T07:51:26;18.60;;;3.95;;
64500;SDS011;50874;24.150;-110.320;2023-04-24T07:53:53;15.73;;;3.42;;
64500;SDS011;50874;24.150;-110.320;2023-04-24T07:56:22;17.25;;;2.80;;
64500;SDS011;50874;24.150;-110.320;2023-04-24T07:58:49;16.83;;;3.53;;
64500;SDS011;50874;24.150;-110.320;2023-04-24T08:01:15;14.40;;;3.92;;
64500;SDS011;50874;24.150;-110.320;2023-04-24T08:03:42;21.70;;;4.72;;
64500;SDS011;50874;24.150;-110.320;2023-04-24T08:06:08;16.48;;;3.55;;
64500;SDS011;50874;24.150;-110.320;2023-04-24T08:08:35;18.00;;;3.25;;
64500;SDS011;50874;24.150;-110.320;2023-04-24T08:11:01;24.20;;;4.43;;
64500;SDS011;50874;24.150;-110.320;2023-04-24T08:13:28;22.27;;;4.13;;
64500;SDS011;50874;24.150;-110.320;2023-04-24T08:15:54;19.40;;;3.05;;
64500;SDS011;50874;24.150;-110.320;2023-04-24T08:18:22;13.43;;;3.83;;
64500;SDS011;50874;24.150;-110.320;2023-04-24T08:20:49;14.85;;;3.45;;
64500;SDS011;50874;24.150;-110.320;2023-04-24T08:23:15;17.00;;;3.58;;
64500;SDS011;50874;24.150;-110.320;2023-04-24T08:25:42;16.88;;;3.67;;
64500;SDS011;50874;24.150;-110.320;2023-04-24T08:28:08;14.00;;;3.30;;
64500;SDS011;50874;24.150;-110.320;2023-04-24T08:30:36;20.90;;;3.35;;
64500;SDS011;50874;24.150;-110.320;2023-04-24T08:33:03;19.85;;;4.07;;
64500;SDS011;50874;24.150;-110.320;2023-04-24T08:35:30;20.48;;;3.63;;
64500;SDS011;50874;24.150;-110.320;2023-04-24T08:37:56;13.13;;;3.08;;
64500;SDS011;50874;24.150;-110.320;2023-04-24T08:40:27;17.48;;;4.20;;
64500;SDS011;50874;24.150;-110.320;2023-04-24T08:42:55;16.48;;;4.05;;
64500;SDS011;50874;24.150;-110.320;2023-04-24T08:45:22;16.13;;;2.85;;
64500;SDS011;50874;24.150;-110.320;2023-04-24T08:47:50;12.60;;;3.75;;
64500;SDS011;50874;24.150;-110.320;2023-04-24T08:50:20;14.90;;;3.83;;
64500;SDS011;50874;24.150;-110.320;2023-04-24T08:52:49;18.00;;;3.65;;
64500;SDS011;50874;24.150;-110.320;2023-04-24T08:55:18;19.80;;;3.47;;
64500;SDS011;50874;24.150;-110.320;2023-04-24T08:57:48;10.85;;;3.15;;
64500;SDS011;50874;24.150;-110.320;2023-04-24T09:00:18;18.38;;;3.80;;
64500;SDS011;50874;24.150;-110.320;2023-04-24T09:02:46;27.90;;;4.22;;
64500;SDS011;50874;24.150;-110.320;2023-04-24T09:05:17;15.20;;;3.67;;
64500;SDS011;50874;24.150;-110.320;2023-04-24T09:07:49;22.77;;;4.20;;
64500;SDS011;50874;24.150;-110.320;2023-04-24T09:10:21;18.48;;;3.97;;
64500;SDS011;50874;24.150;-110.320;2023-04-24T09:12:49;30.67;;;4.75;;
64500;SDS011;50874;24.150;-110.320;2023-04-24T09:15:17;20.88;;;4.55;;
64500;SDS011;50874;24.150;-110.320;2023-04-24T09:17:45;21.35;;;4.05;;
64500;SDS011;50874;24.150;-110.320;2023-04-24T09:20:12;18.52;;;3.72;;
64500;SDS011;50874;24.150;-110.320;2023-04-24T09:22:39;17.13;;;3.60;;
64500;SDS011;50874;24.150;-110.320;2023-04-24T09:25:07;19.10;;;4.38;;
64500;SDS011;50874;24.150;-110.320;2023-04-24T09:27:34;18.50;;;4.85;;
64500;SDS011;50874;24.150;-110.320;2023-04-24T09:30:01;16.95;;;4.03;;
64500;SDS011;50874;24.150;-110.320;2023-04-24T09:32:28;28.20;;;4.75;;
64500;SDS011;50874;24.150;-110.320;2023-04-24T09:35:09;21.55;;;4.25;;
64500;SDS011;50874;24.150;-110.320;2023-04-24T09:37:46;18.85;;;5.00;;
64500;SDS011;50874;24.150;-110.320;2023-04-24T09:40:20;17.73;;;3.75;;
64500;SDS011;50874;24.150;-110.320;2023-04-24T09:42:55;17.77;;;4.25;;
64500;SDS011;50874;24.150;-110.320;2023-04-24T09:45:22;14.55;;;4.03;;
64500;SDS011;50874;24.150;-110.320;2023-04-24T09:47:53;17.98;;;4.20;;
64500;SDS011;50874;24.150;-110.320;2023-04-24T09:50:21;17.17;;;3.33;;
64500;SDS011;50874;24.150;-110.320;2023-04-24T09:52:58;16.75;;;3.58;;
64500;SDS011;50874;24.150;-110.320;2023-04-24T09:55:26;18.38;;;4.35;;
64500;SDS011;50874;24.150;-110.320;2023-04-24T09:57:54;19.45;;;3.88;;
64500;SDS011;50874;24.150;-110.320;2023-04-24T10:00:29;15.88;;;4.03;;
64500;SDS011;50874;24.150;-110.320;2023-04-24T10:03:03;12.93;;;3.22;;
64500;SDS011;50874;24.150;-110.320;2023-04-24T10:05:32;24.08;;;3.33;;
64500;SDS011;50874;24.150;-110.320;2023-04-24T10:08:04;16.55;;;3.40;;
64500;SDS011;50874;24.150;-110.320;2023-04-24T10:10:32;12.73;;;3.50;;
64500;SDS011;50874;24.150;-110.320;2023-04-24T10:13:00;13.73;;;2.83;;
64500;SDS011;50874;24.150;-110.320;2023-04-24T10:15:26;15.93;;;3.40;;
64500;SDS011;50874;24.150;-110.320;2023-04-24T10:17:53;13.13;;;3.13;;
64500;SDS011;50874;24.150;-110.320;2023-04-24T10:20:21;13.07;;;2.75;;
64500;SDS011;50874;24.150;-110.320;2023-04-24T10:22:49;18.70;;;3.42;;
64500;SDS011;50874;24.150;-110.320;2023-04-24T10:25:18;12.32;;;3.47;;
64500;SDS011;50874;24.150;-110.320;2023-04-24T10:27:47;11.68;;;2.90;;
64500;SDS011;50874;24.150;-110.320;2023-04-24T10:30:15;14.95;;;3.30;;
64500;SDS011;50874;24.150;-110.320;2023-04-24T10:32:42;12.43;;;3.00;;
64500;SDS011;50874;24.150;-110.320;2023-04-24T10:35:11;10.27;;;2.28;;
64500;SDS011;50874;24.150;-110.320;2023-04-24T10:37:49;15.18;;;2.45;;
64500;SDS011;50874;24.150;-110.320;2023-04-24T10:40:31;11.65;;;2.33;;
64500;SDS011;50874;24.150;-110.320;2023-04-24T10:43:01;14.50;;;2.95;;
64500;SDS011;50874;24.150;-110.320;2023-04-24T10:45:31;14.60;;;3.83;;
64500;SDS011;50874;24.150;-110.320;2023-04-24T10:48:01;13.00;;;3.17;;
64500;SDS011;50874;24.150;-110.320;2023-04-24T10:50:41;5.43;;;2.17;;
64500;SDS011;50874;24.150;-110.320;2023-04-24T10:53:14;12.43;;;2.45;;
64500;SDS011;50874;24.150;-110.320;2023-04-24T10:55:43;9.52;;;2.88;;
64500;SDS011;50874;24.150;-110.320;2023-04-24T10:58:10;14.00;;;2.55;;
64500;SDS011;50874;24.150;-110.320;2023-04-24T11:00:40;13.50;;;3.00;;
64500;SDS011;50874;24.150;-110.320;2023-04-24T11:03:28;19.35;;;3.15;;
64500;SDS011;50874;24.150;-110.320;2023-04-24T11:08:47;7.97;;;2.60;;
64500;SDS011;50874;24.150;-110.320;2023-04-24T11:11:16;11.77;;;2.38;;
64500;SDS011;50874;24.150;-110.320;2023-04-24T11:16:26;8.30;;;2.53;;
64500;SDS011;50874;24.150;-110.320;2023-04-24T11:21:31;8.40;;;1.50;;
64500;SDS011;50874;24.150;-110.320;2023-04-24T11:24:22;6.20;;;1.75;;
64500;SDS011;50874;24.150;-110.320;2023-04-24T11:26:53;7.50;;;1.60;;
64500;SDS011;50874;24.150;-110.320;2023-04-24T11:29:22;6.70;;;2.03;;
64500;SDS011;50874;24.150;-110.320;2023-04-24T11:32:14;6.57;;;1.83;;
64500;SDS011;50874;24.150;-110.320;2023-04-24T11:34:51;7.68;;;1.98;;
64500;SDS011;50874;24.150;-110.320;2023-04-24T11:37:20;16.40;;;2.53;;
64500;SDS011;50874;24.150;-110.320;2023-04-24T11:39:49;6.95;;;1.95;;
64500;SDS011;50874;24.150;-110.320;2023-04-24T11:42:17;9.27;;;1.95;;
64500;SDS011;50874;24.150;-110.320;2023-04-24T11:44:45;9.38;;;2.42;;
64500;SDS011;50874;24.150;-110.320;2023-04-24T11:47:12;8.52;;;2.25;;
64500;SDS011;50874;24.150;-110.320;2023-04-24T11:49:39;17.42;;;2.88;;
64500;SDS011;50874;24.150;-110.320;2023-04-24T11:52:05;9.52;;;2.30;;
64500;SDS011;50874;24.150;-110.320;2023-04-24T11:54:32;9.40;;;2.05;;
64500;SDS011;50874;24.150;-110.320;2023-04-24T11:56:59;8.55;;;2.58;;
64500;SDS011;50874;24.150;-110.320;2023-04-24T11:59:29;9.40;;;2.05;;
64500;SDS011;50874;24.150;-110.320;2023-04-24T12:01:55;7.75;;;2.78;;
64500;SDS011;50874;24.150;-110.320;2023-04-24T12:04:21;10.32;;;2.40;;
64500;SDS011;50874;24.150;-110.320;2023-04-24T12:07:03;12.98;;;1.95;;
64500;SDS011;50874;24.150;-110.320;2023-04-24T12:12:16;10.18;;;2.05;;
64500;SDS011;50874;24.150;-110.320;2023-04-24T12:17:10;4.35;;;1.70;;
64500;SDS011;50874;24.150;-110.320;2023-04-24T12:19:37;10.25;;;1.98;;
64500;SDS011;50874;24.150;-110.320;2023-04-24T12:22:04;8.95;;;2.20;;
64500;SDS011;50874;24.150;-110.320;2023-04-24T12:24:31;7.53;;;2.55;;
64500;SDS011;50874;24.150;-110.320;2023-04-24T12:26:58;8.40;;;2.15;;
64500;SDS011;50874;24.150;-110.320;2023-04-24T12:29:26;8.13;;;2.00;;
64500;SDS011;50874;24.150;-110.320;2023-04-24T12:31:53;5.00;;;1.88;;
64500;SDS011;50874;24.150;-110.320;2023-04-24T12:34:21;11.10;;;2.25;;
64500;SDS011;50874;24.150;-110.320;2023-04-24T12:36:49;10.05;;;2.58;;
64500;SDS011;50874;24.150;-110.320;2023-04-24T12:39:16;9.88;;;2.20;;
64500;SDS011;50874;24.150;-110.320;2023-04-24T12:41:57;14.40;;;2.00;;
64500;SDS011;50874;24.150;-110.320;2023-04-24T12:44:33;15.27;;;2.85;;
64500;SDS011;50874;24.150;-110.320;2023-04-24T12:47:01;12.80;;;2.38;;
64500;SDS011;50874;24.150;-110.320;2023-04-24T12:49:29;13.68;;;3.22;;
64500;SDS011;50874;24.150;-110.320;2023-04-24T12:51:56;12.45;;;2.50;;
64500;SDS011;50874;24.150;-110.320;2023-04-24T12:54:23;11.63;;;2.38;;
64500;SDS011;50874;24.150;-110.320;2023-04-24T12:56:49;14.13;;;2.97;;
64500;SDS011;50874;24.150;-110.320;2023-04-24T12:59:15;13.63;;;2.92;;
64500;SDS011;50874;24.150;-110.320;2023-04-24T13:01:42;17.23;;;3.33;;
64500;SDS011;50874;24.150;-110.320;2023-04-24T13:04:08;8.13;;;2.55;;
64500;SDS011;50874;24.150;-110.320;2023-04-24T13:06:35;12.73;;;3.10;;
64500;SDS011;50874;24.150;-110.320;2023-04-24T13:09:02;17.95;;;4.03;;
64500;SDS011;50874;24.150;-110.320;2023-04-24T13:11:28;16.42;;;3.70;;
64500;SDS011;50874;24.150;-110.320;2023-04-24T13:13:55;14.20;;;3.70;;
64500;SDS011;50874;24.150;-110.320;2023-04-24T13:16:21;30.52;;;4.40;;
64500;SDS011;50874;24.150;-110.320;2023-04-24T13:18:48;19.38;;;3.42;;
64500;SDS011;50874;24.150;-110.320;2023-04-24T13:21:15;10.15;;;2.47;;
64500;SDS011;50874;24.150;-110.320;2023-04-24T13:23:41;27.15;;;3.20;;
64500;SDS011;50874;24.150;-110.320;2023-04-24T13:26:08;9.52;;;3.08;;
64500;SDS011;50874;24.150;-110.320;2023-04-24T13:28:34;8.70;;;2.20;;
64500;SDS011;50874;24.150;-110.320;2023-04-24T13:31:01;11.55;;;2.40;;
64500;SDS011;50874;24.150;-110.320;2023-04-24T13:33:27;17.58;;;2.88;;
64500;SDS011;50874;24.150;-110.320;2023-04-24T13:35:54;11.40;;;2.70;;
64500;SDS011;50874;24.150;-110.320;2023-04-24T13:38:20;13.63;;;3.35;;
64500;SDS011;50874;24.150;-110.320;2023-04-24T13:40:47;28.90;;;4.00;;
64500;SDS011;50874;24.150;-110.320;2023-04-24T13:43:14;19.45;;;3.40;;
64500;SDS011;50874;24.150;-110.320;2023-04-24T13:45:40;29.65;;;4.32;;
64500;SDS011;50874;24.150;-110.320;2023-04-24T13:48:07;17.80;;;4.07;;
64500;SDS011;50874;24.150;-110.320;2023-04-24T13:50:34;22.13;;;3.97;;
64500;SDS011;50874;24.150;-110.320;2023-04-24T13:53:01;21.92;;;3.22;;
64500;SDS011;50874;24.150;-110.320;2023-04-24T13:55:28;18.05;;;3.38;;
64500;SDS011;50874;24.150;-110.320;2023-04-24T13:57:55;19.15;;;3.70;;
64500;SDS011;50874;24.150;-110.320;2023-04-24T14:00:21;39.60;;;4.35;;
64500;SDS011;50874;24.150;-110.320;2023-04-24T14:02:48;25.33;;;3.92;;
64500;SDS011;50874;24.150;-110.320;2023-04-24T14:05:14;20.40;;;3.40;;
64500;SDS011;50874;24.150;-110.320;2023-04-24T14:07:41;8.90;;;1.95;;
64500;SDS011;50874;24.150;-110.320;2023-04-24T14:10:07;30.02;;;5.05;;
64500;SDS011;50874;24.150;-110.320;2023-04-24T14:12:34;25.65;;;3.83;;
64500;SDS011;50874;24.150;-110.320;2023-04-24T14:15:01;7.85;;;2.15;;